Time;durP1;ratioP1;P1;durP2;ratioP2;P2;SDS_P1;SDS_P2;PMS_P1;PMS_P2;Temp;Humidity;BMP_temperature;BMP_pressure;BME280_temperature;BME280_humidity;BME280_pressure;Samples;Min_cycle;Max_cycle;Signal;HPM_P1;HPM_P2
2020/12/14 00:00:23;;;;;;;4.03;2.30;;;4.00;1.00;;;;;;5076940;28;20166;-74
2020/12/14 00:02:53;;;;;;;18.30;3.10;;;4.00;1.00;;;;;;5076903;28;20191;-74
2020/12/14 00:05:18;;;;;;;9.20;3.28;;;3.90;1.00;;;;;;5076844;28;20148;-74
2020/12/14 00:07:47;;;;;;;4.20;3.03;;;3.90;1.00;;;;;;5077440;28;20225;-74
2020/12/14 00:10:17;;;;;;;5.25;2.95;;;3.80;1.00;;;;;;5076745;28;20216;-74
2020/12/14 00:12:54;;;;;;;5.00;2.75;;;3.70;1.00;;;;;;5081795;28;20505;-74
2020/12/14 00:15:19;;;;;;;7.90;3.30;;;3.70;1.00;;;;;;5077210;28;20189;-74
2020/12/14 00:17:45;;;;;;;6.03;2.90;;;3.70;1.00;;;;;;5092263;28;20191;-74
2020/12/14 00:20:14;;;;;;;3.77;2.30;;;3.70;1.00;;;;;;5075243;28;20163;-74
2020/12/14 00:22:54;;;;;;;5.00;2.55;;;3.60;1.00;;;;;;5076405;28;20596;-74
2020/12/14 00:25:20;;;;;;;2.60;1.98;;;3.50;1.00;;;;;;5091271;28;20163;-75
2020/12/14 00:27:53;;;;;;;5.23;3.30;;;3.50;1.00;;;;;;5096448;28;20241;-74
2020/12/14 00:30:29;;;;;;;4.75;3.00;;;3.60;1.00;;;;;;5096575;28;20385;-75
2020/12/14 00:32:54;;;;;;;3.00;2.65;;;3.50;1.00;;;;;;5096604;28;20162;-74
2020/12/14 00:35:23;;;;;;;4.07;2.60;;;3.50;1.00;;;;;;5082980;28;20178;-74
2020/12/14 00:37:49;;;;;;;4.63;2.65;;;;;;;;;;5075847;28;20161;-74
2020/12/14 00:40:15;;;;;;;5.55;2.85;;;3.40;1.00;;;;;;5076032;28;20202;-74
2020/12/14 00:42:44;;;;;;;3.85;2.00;;;3.40;1.00;;;;;;5092128;28;20221;-74
2020/12/14 00:45:10;;;;;;;6.10;2.35;;;3.30;1.00;;;;;;5088729;28;20163;-74
2020/12/14 00:47:36;;;;;;;3.53;1.90;;;3.40;1.00;;;;;;5075981;28;20649;-74
2020/12/14 00:50:05;;;;;;;2.43;1.87;;;3.30;1.00;;;;;;5075712;28;20452;-74
2020/12/14 00:52:41;;;;;;;7.28;2.80;;;3.30;1.00;;;;;;5076207;28;20394;-75
2020/12/14 00:55:07;;;;;;;4.35;2.05;;;3.30;1.00;;;;;;5075852;28;20196;-75
2020/12/14 00:57:32;;;;;;;2.57;2.37;;;3.30;1.00;;;;;;5095420;28;20167;-75
2020/12/14 00:59:59;;;;;;;8.17;2.97;;;3.30;1.00;;;;;;5087160;28;20421;-75
2020/12/14 01:02:25;;;;;;;6.03;2.20;;;3.40;1.00;;;;;;5076198;28;20242;-75
2020/12/14 01:04:59;;;;;;;2.17;1.98;;;3.40;1.00;;;;;;5076534;28;20202;-75
2020/12/14 01:07:24;;;;;;;2.20;1.50;;;3.40;1.00;;;;;;5089948;28;20610;-74
2020/12/14 01:09:50;;;;;;;4.50;2.60;;;3.40;1.00;;;;;;5091323;28;20203;-75
2020/12/14 01:12:17;;;;;;;3.17;2.90;;;3.40;1.00;;;;;;5075544;28;20163;-74
2020/12/14 01:14:42;;;;;;;2.85;2.40;;;3.40;1.00;;;;;;5075200;28;20203;-74
2020/12/14 01:17:10;;;;;;;2.93;1.90;;;3.50;1.00;;;;;;5075175;28;20222;-74
2020/12/14 01:19:41;;;;;;;3.35;2.22;;;3.50;1.00;;;;;;5076255;28;20409;-74
2020/12/14 01:22:34;;;;;;;2.75;2.13;;;3.50;1.00;;;;;;5095680;28;20610;-75
2020/12/14 01:25:17;;;;;;;2.72;2.25;;;3.60;1.00;;;;;;5095978;28;20166;-75
2020/12/14 01:27:59;;;;;;;3.97;2.53;;;3.70;1.00;;;;;;5093648;28;20241;-76
2020/12/14 01:30:25;;;;;;;2.40;2.10;;;3.70;1.00;;;;;;5075400;28;20645;-75
2020/12/14 01:32:51;;;;;;;2.33;1.97;;;3.80;1.00;;;;;;5074879;28;20155;-75
2020/12/14 01:35:46;;;;;;;2.78;1.92;;;3.80;1.00;;;;;;5075468;28;20413;-75
2020/12/14 01:38:17;;;;;;;5.63;2.55;;;3.80;1.00;;;;;;5077186;28;20645;-75
2020/12/14 01:40:47;;;;;;;4.93;2.70;;;3.90;1.00;;;;;;5095183;28;20159;-75
2020/12/14 01:43:23;;;;;;;6.30;3.17;;;4.00;1.00;;;;;;5095376;28;20162;-75
2020/12/14 01:45:50;;;;;;;3.70;2.58;;;4.00;1.00;;;;;;5081312;28;20217;-75
2020/12/14 01:48:52;;;;;;;5.05;2.88;;;4.10;1.00;;;;;;5074819;28;20251;-75
2020/12/14 01:51:18;;;;;;;5.32;2.65;;;4.20;1.00;;;;;;5075218;28;20154;-74
2020/12/14 01:53:45;;;;;;;2.63;1.80;;;4.20;1.00;;;;;;5074783;28;20168;-75
2020/12/14 01:56:11;;;;;;;6.05;2.90;;;4.30;1.00;;;;;;5079604;28;20178;-75
2020/12/14 01:58:37;;;;;;;13.63;2.27;;;4.30;1.00;;;;;;5094897;28;20208;-75
2020/12/14 02:01:11;;;;;;;2.97;2.27;;;4.30;1.00;;;;;;5092855;28;20421;-75
2020/12/14 02:03:36;;;;;;;5.25;2.58;;;4.40;1.00;;;;;;5094580;28;20475;-74
2020/12/14 02:06:05;;;;;;;5.87;2.87;;;4.30;1.00;;;;;;5094795;28;20182;-74
2020/12/14 02:08:58;;;;;;;3.28;2.03;;;4.30;1.00;;;;;;5095095;28;20190;-76
2020/12/14 02:11:46;;;;;;;3.40;2.80;;;4.40;1.00;;;;;;5074694;28;20614;-75
2020/12/14 02:14:17;;;;;;;4.22;2.90;;;4.40;1.00;;;;;;5074529;28;20170;-75
2020/12/14 02:16:42;;;;;;;3.60;2.45;;;4.40;1.00;;;;;;5092962;28;20214;-76
2020/12/14 02:19:11;;;;;;;5.00;2.97;;;4.40;1.00;;;;;;5094219;28;20165;-76
2020/12/14 02:21:37;;;;;;;6.80;3.13;;;4.40;1.00;;;;;;5075570;28;20178;-74
2020/12/14 02:24:17;;;;;;;5.33;2.73;;;4.40;1.00;;;;;;5080381;28;20178;-74
2020/12/14 02:26:53;;;;;;;5.78;2.50;;;4.40;1.00;;;;;;5074173;28;20151;-74
2020/12/14 02:29:23;;;;;;;4.45;2.70;;;4.40;1.00;;;;;;5074059;28;20259;-75
2020/12/14 02:31:59;;;;;;;7.50;3.60;;;4.40;1.00;;;;;;5074072;28;20708;-75
2020/12/14 02:34:35;;;;;;;14.05;3.08;;;4.30;1.00;;;;;;5073812;28;20159;-75
2020/12/14 02:37:13;;;;;;;5.10;2.72;;;4.40;1.00;;;;;;5086224;28;20613;-75
2020/12/14 02:39:39;;;;;;;3.78;2.75;;;4.30;1.00;;;;;;5093487;28;20228;-74
2020/12/14 02:42:17;;;;;;;5.93;3.13;;;4.40;1.00;;;;;;5074170;28;20178;-74
2020/12/14 02:44:43;;;;;;;6.78;3.33;;;4.40;1.00;;;;;;5073206;28;20645;-74
2020/12/14 02:47:09;;;;;;;14.15;3.10;;;4.50;1.00;;;;;;5073922;28;20473;-74
2020/12/14 02:49:35;;;;;;;5.70;3.30;;;4.50;1.00;;;;;;5073854;28;20252;-75
2020/12/14 02:52:02;;;;;;;9.85;3.35;;;4.50;1.00;;;;;;5072937;28;20762;-74
2020/12/14 02:54:36;;;;;;;7.57;3.65;;;4.50;1.00;;;;;;5083348;28;20190;-75
2020/12/14 02:57:02;;;;;;;4.60;3.17;;;4.40;1.00;;;;;;5074590;28;20321;-75
2020/12/14 02:59:29;;;;;;;5.65;3.58;;;4.40;1.00;;;;;;5073750;28;20163;-74
2020/12/14 03:01:59;;;;;;;6.35;3.38;;;4.30;1.00;;;;;;5086816;28;20213;-74
2020/12/14 03:04:24;;;;;;;8.40;3.08;;;4.40;1.00;;;;;;5093862;28;20166;-74
2020/12/14 03:06:53;;;;;;;5.47;3.77;;;4.40;1.00;;;;;;5092251;28;20177;-74
2020/12/14 03:09:20;;;;;;;3.30;2.85;;;4.40;1.00;;;;;;5084592;28;20190;-74
2020/12/14 03:11:48;;;;;;;8.00;3.30;;;4.50;1.00;;;;;;5073828;28;20160;-74
2020/12/14 03:14:14;;;;;;;3.40;2.50;;;4.50;1.00;;;;;;5073552;28;20156;-74
2020/12/14 03:16:45;;;;;;;3.55;2.80;;;4.40;1.00;;;;;;5074208;28;20193;-74
2020/12/14 03:19:18;;;;;;;5.72;3.33;;;4.40;1.00;;;;;;5074389;28;21695;-75
2020/12/14 03:21:50;;;;;;;4.53;2.80;;;4.50;1.00;;;;;;5083248;28;20258;-74
2020/12/14 03:24:34;;;;;;;3.80;3.20;;;4.40;1.00;;;;;;5082070;28;20183;-75
2020/12/14 03:27:11;;;;;;;9.73;3.60;;;4.50;1.00;;;;;;5073469;28;20284;-75
2020/12/14 03:29:37;;;;;;;6.05;3.05;;;4.50;1.00;;;;;;5093111;28;20243;-75
2020/12/14 03:32:05;;;;;;;7.30;4.10;;;4.50;1.00;;;;;;5093828;28;20245;-75
2020/12/14 03:34:54;;;;;;;4.20;3.05;;;4.40;1.00;;;;;;5084020;28;20416;-75
2020/12/14 03:37:20;;;;;;;4.85;2.67;;;4.30;1.00;;;;;;5073767;28;20542;-75
2020/12/14 03:39:45;;;;;;;5.53;3.23;;;4.20;1.00;;;;;;5074463;28;20189;-76
2020/12/14 03:42:52;;;;;;;5.17;2.77;;;4.20;1.00;;;;;;5073409;28;20159;-76
2020/12/14 03:45:29;;;;;;;4.85;2.75;;;4.20;1.00;;;;;;5073019;28;20243;-76
2020/12/14 03:48:05;;;;;;;5.28;2.80;;;4.20;1.00;;;;;;5073154;28;20171;-76
2020/12/14 03:50:47;;;;;;;5.07;2.80;;;4.10;1.00;;;;;;5085144;28;20490;-76
2020/12/14 03:56:58;;;;;;;2.75;2.28;;;4.10;1.00;;;;;;5092684;28;20182;-76
2020/12/14 03:59:46;;;;;;;2.63;2.40;;;4.00;1.00;;;;;;5089248;28;20178;-75
2020/12/14 04:02:17;;;;;;;5.65;2.45;;;3.90;1.00;;;;;;5076916;28;20167;-75
2020/12/14 04:04:53;;;;;;;4.43;2.40;;;3.90;1.00;;;;;;5077004;28;20208;-75
2020/12/14 04:08:04;;;;;;;7.63;3.17;;;3.90;1.00;;;;;;5076833;28;20174;-76
2020/12/14 04:10:52;;;;;;;11.82;4.75;;;4.00;1.00;;;;;;5076688;28;20262;-76
2020/12/14 04:13:18;;;;;;;3.10;2.10;;;4.00;1.00;;;;;;5076912;28;20189;-76
2020/12/14 04:19:23;;;;;;;120.88;45.63;;;4.10;1.00;;;;;;5093037;28;20205;-76
2020/12/14 04:21:51;;;;;;;9.27;3.13;;;4.00;1.00;;;;;;5094941;28;20166;-76
2020/12/14 04:24:17;;;;;;;6.72;3.20;;;4.10;1.00;;;;;;5096985;28;20166;-75
2020/12/14 04:26:43;;;;;;;68.20;20.13;;;4.20;1.00;;;;;;5082860;28;20179;-75
2020/12/14 04:29:10;;;;;;;450.35;119.00;;;4.90;1.00;;;;;;5076266;28;20670;-75
2020/12/14 04:31:35;;;;;;;104.53;36.80;;;4.20;1.00;;;;;;5076372;28;20163;-75
2020/12/14 04:34:02;;;;;;;69.27;28.20;;;4.20;1.00;;;;;;5076464;28;20671;-75
2020/12/14 04:36:35;;;;;;;4.15;3.03;;;4.20;1.00;;;;;;5076238;28;20500;-74
2020/12/14 04:39:00;;;;;;;6.03;3.13;;;4.20;1.00;;;;;;5076542;28;20630;-75
2020/12/14 04:41:56;;;;;;;2.97;2.33;;;4.20;1.00;;;;;;5076453;28;20193;-75
2020/12/14 04:44:23;;;;;;;6.75;3.30;;;4.10;1.00;;;;;;5083585;28;20234;-76
2020/12/14 04:46:49;;;;;;;6.75;2.72;;;4.10;1.00;;;;;;5084823;28;20179;-76
2020/12/14 04:49:15;;;;;;;7.90;3.17;;;4.10;1.00;;;;;;5093788;28;20204;-76
2020/12/14 04:52:11;;;;;;;4.82;2.50;;;4.10;1.00;;;;;;5078824;28;20526;-76
2020/12/14 04:54:37;;;;;;;4.03;2.80;;;4.20;1.00;;;;;;5095513;28;20167;-74
2020/12/14 04:57:21;;;;;;;5.25;3.00;;;4.20;1.00;;;;;;5077391;28;20167;-75
2020/12/14 04:59:53;;;;;;;3.53;2.60;;;4.20;1.00;;;;;;5075584;28;20610;-74
2020/12/14 05:02:23;;;;;;;3.35;2.78;;;4.10;1.00;;;;;;5085439;28;20542;-74
2020/12/14 05:04:48;;;;;;;3.97;2.70;;;4.10;1.00;;;;;;5075583;28;20467;-75
2020/12/14 05:07:17;;;;;;;6.13;3.47;;;4.10;1.00;;;;;;5074924;28;20224;-75
2020/12/14 05:10:13;;;;;;;7.85;3.28;;;4.10;1.00;;;;;;5076172;28;20191;-77
2020/12/14 05:12:41;;;;;;;10.15;3.53;;;4.10;1.00;;;;;;5013688;28;20243;-76
2020/12/14 05:19:10;;;;;;;4.97;3.20;;;4.00;1.00;;;;;;5013403;28;20246;-77
2020/12/14 05:21:50;;;;;;;4.25;2.75;;;4.00;1.00;;;;;;5021989;28;20192;-76
2020/12/14 05:24:33;;;;;;;3.97;3.00;;;4.00;1.00;;;;;;5033628;28;20766;-75
2020/12/14 05:27:00;;;;;;;4.90;3.33;;;4.00;1.00;;;;;;5033609;28;20167;-74
2020/12/14 05:29:31;;;;;;;5.72;3.58;;;4.00;1.00;;;;;;5046784;28;20222;-74
2020/12/14 05:32:10;;;;;;;5.00;3.40;;;4.00;1.00;;;;;;5039323;28;20252;-74
2020/12/14 05:34:42;;;;;;;4.95;3.25;;;4.00;1.00;;;;;;5033199;28;20247;-74
2020/12/14 05:37:13;;;;;;;7.78;3.63;;;4.00;1.00;;;;;;5014153;28;20211;-74
2020/12/14 05:39:47;;;;;;;5.43;3.10;;;4.00;1.00;;;;;;5027387;28;20181;-75
2020/12/14 05:42:18;;;;;;;5.07;3.25;;;4.00;1.00;;;;;;5032508;28;20267;-75
2020/12/14 05:44:45;;;;;;;5.03;2.78;;;4.00;1.00;;;;;;5030029;28;20188;-74
2020/12/14 05:47:31;;;;;;;7.28;3.35;;;4.00;1.00;;;;;;5030662;28;20184;-75
2020/12/14 05:50:11;;;;;;;3.72;2.55;;;3.90;1.00;;;;;;5069079;28;20256;-75
2020/12/14 05:52:48;;;;;;;6.50;3.20;;;3.80;1.00;;;;;;5076526;28;20179;-75
2020/12/14 05:55:18;;;;;;;6.65;2.90;;;3.80;1.00;;;;;;5095225;28;20153;-75
2020/12/14 05:57:49;;;;;;;5.10;2.78;;;3.80;1.00;;;;;;5077352;28;20170;-75
2020/12/14 06:00:15;;;;;;;3.03;2.28;;;3.80;1.00;;;;;;5094900;28;20162;-74
2020/12/14 06:02:41;;;;;;;4.97;2.55;;;3.80;1.00;;;;;;5074327;28;20256;-75
2020/12/14 06:05:07;;;;;;;7.00;2.83;;;3.80;1.00;;;;;;5074416;28;20625;-74
2020/12/14 06:07:34;;;;;;;2.67;2.28;;;3.80;1.00;;;;;;5074362;28;20238;-74
2020/12/14 06:10:15;;;;;;;4.47;3.33;;;3.80;1.00;;;;;;5076829;28;20207;-75
2020/12/14 06:12:42;;;;;;;13.35;3.03;;;3.80;1.00;;;;;;5091609;28;20170;-76
2020/12/14 06:15:10;;;;;;;6.18;3.15;;;3.80;1.00;;;;;;5097591;28;20154;-76
2020/12/14 06:17:37;;;;;;;5.28;2.95;;;3.90;1.00;;;;;;5092572;28;20194;-76
2020/12/14 06:20:08;;;;;;;5.70;2.58;;;3.90;1.00;;;;;;5088811;28;20185;-76
2020/12/14 06:22:58;;;;;;;8.45;3.22;;;4.00;1.00;;;;;;5079915;28;20645;-77
2020/12/14 06:25:30;;;;;;;7.38;2.53;;;4.00;1.00;;;;;;5084331;28;20189;-76
2020/12/14 06:28:29;;;;;;;7.53;3.10;;;4.00;1.00;;;;;;5078057;28;20171;-75
2020/12/14 06:31:32;;;;;;;5.90;3.15;;;4.00;1.00;;;;;;5066619;28;20696;-77
2020/12/14 06:37:22;;;;;;;6.95;3.15;;;4.00;1.00;;;;;;5051379;28;20187;-78
2020/12/14 06:40:40;;;;;;;4.63;2.63;;;4.10;1.00;;;;;;5051708;28;20175;-78
2020/12/14 06:53:52;;;;;;;3.00;2.60;;;4.30;1.00;;;;;;5071637;28;20242;-78
2020/12/14 06:57:04;;;;;;;3.85;2.63;;;4.30;1.00;;;;;;5071464;28;20159;-77
2020/12/14 07:06:35;;;;;;;3.63;2.45;;;4.40;1.00;;;;;;5071785;28;20202;-78
2020/12/14 07:12:22;;;;;;;5.63;2.75;;;4.50;1.00;;;;;;5099114;28;20643;-78
2020/12/14 07:15:40;;;;;;;7.83;2.53;;;4.50;1.00;;;;;;5107615;28;20166;-78
2020/12/14 07:18:30;;;;;;;3.35;2.65;;;4.50;1.00;;;;;;5093738;28;20202;-78
2020/12/14 07:27:47;;;;;;;5.32;3.03;;;4.70;1.00;;;;;;5093747;28;20173;-78
2020/12/14 07:31:04;;;;;;;7.28;3.65;;;4.90;1.00;;;;;;5095600;28;20184;-78
2020/12/14 07:34:10;;;;;;;2.97;2.55;;;4.90;1.00;;;;;;5097605;28;20514;-78
2020/12/14 07:36:47;;;;;;;4.78;2.60;;;5.00;1.00;;;;;;5015359;28;20765;-78
2020/12/14 07:39:17;;;;;;;2.53;2.20;;;5.10;1.00;;;;;;5015910;28;20197;-76
2020/12/14 07:41:47;;;;;;;8.00;3.10;;;5.10;1.00;;;;;;5015518;28;20168;-75
2020/12/14 07:44:17;;;;;;;4.95;3.35;;;5.10;1.00;;;;;;5034710;28;20268;-75
2020/12/14 07:46:44;;;;;;;3.33;2.88;;;5.20;1.00;;;;;;5026863;28;20531;-75
2020/12/14 07:49:12;;;;;;;6.30;3.45;;;5.20;1.00;;;;;;5008310;28;20222;-75
2020/12/14 07:55:17;;;;;;;9.02;2.97;;;5.40;1.00;;;;;;5027769;28;20200;-78
2020/12/14 07:57:59;;;;;;;8.90;4.50;;;;;;;;;;5018515;28;20180;-76
2020/12/14 08:00:41;;;;;;;11.60;5.35;;;5.50;1.00;;;;;;5018791;28;20177;-76
2020/12/14 08:03:17;;;;;;;11.70;5.53;;;5.50;1.00;;;;;;5018746;28;20596;-76
2020/12/14 08:05:47;;;;;;;12.60;5.50;;;5.60;1.00;;;;;;5014923;28;20860;-75
2020/12/14 08:08:13;;;;;;;11.90;5.50;;;5.60;1.00;;;;;;5013820;28;20404;-76
2020/12/14 08:10:39;;;;;;;10.33;5.80;;;5.60;1.00;;;;;;5040851;28;20417;-75
2020/12/14 08:13:09;;;;;;;12.83;6.03;;;5.70;1.00;;;;;;5095624;28;20412;-75
2020/12/14 08:15:35;;;;;;;9.40;5.07;;;;;;;;;;5095766;28;20432;-75
2020/12/14 08:18:05;;;;;;;10.83;5.27;;;5.80;1.00;;;;;;5095854;28;20381;-75
2020/12/14 08:20:36;;;;;;;12.60;5.30;;;6.00;1.00;;;;;;5094982;28;20452;-75
2020/12/14 08:23:15;;;;;;;9.27;4.90;;;6.00;1.00;;;;;;5078636;28;20416;-75
2020/12/14 08:25:44;;;;;;;11.87;5.90;;;6.10;1.00;;;;;;5076597;28;20429;-75
2020/12/14 08:28:10;;;;;;;11.40;5.53;;;6.20;1.00;;;;;;5077991;28;20457;-76
2020/12/14 08:30:39;;;;;;;13.53;5.67;;;6.20;1.00;;;;;;5077524;28;20417;-77
2020/12/14 08:33:12;;;;;;;13.13;4.87;;;6.30;1.00;;;;;;5090632;28;20405;-76
2020/12/14 08:35:41;;;;;;;5.87;4.17;;;6.40;1.00;;;;;;5092856;28;20435;-76
2020/12/14 08:38:29;;;;;;;10.80;4.27;;;6.50;1.00;;;;;;5075050;28;20780;-76
2020/12/14 08:41:03;;;;;;;5.70;4.27;;;6.50;1.00;;;;;;5074151;28;20413;-75
2020/12/14 08:43:32;;;;;;;7.00;4.27;;;6.70;1.00;;;;;;5080283;28;20569;-75
2020/12/14 08:46:11;;;;;;;12.30;4.53;;;6.70;1.00;;;;;;5090435;28;20413;-75
2020/12/14 08:48:46;;;;;;;9.50;4.67;;;6.90;1.00;;;;;;5074611;28;20448;-78
2020/12/14 08:51:30;;;;;;;9.93;4.23;;;6.90;1.00;;;;;;5079841;28;20421;-75
2020/12/14 08:54:11;;;;;;;9.63;4.97;;;7.00;1.00;;;;;;5085210;28;20417;-75
2020/12/14 08:56:37;;;;;;;12.63;5.90;;;7.10;1.00;;;;;;5077992;28;20425;-76
2020/12/14 08:59:03;;;;;;;7.83;5.23;;;7.10;1.00;;;;;;5075617;28;20428;-76
2020/12/14 09:01:31;;;;;;;7.73;4.20;;;7.20;1.00;;;;;;5077242;28;20394;-76
2020/12/14 09:03:58;;;;;;;11.10;5.17;;;8.90;1.00;;;;;;5095019;28;20400;-76
2020/12/14 09:06:38;;;;;;;16.13;5.40;;;8.10;1.00;;;;;;5095057;28;20879;-76
2020/12/14 09:09:07;;;;;;;11.50;5.40;;;7.30;1.00;;;;;;5094810;28;20961;-76
2020/12/14 09:11:35;;;;;;;12.90;7.83;;;7.40;1.00;;;;;;5094636;28;20428;-76
2020/12/14 09:14:03;;;;;;;11.87;6.57;;;8.40;1.00;;;;;;5088959;28;20504;-76
2020/12/14 09:16:29;;;;;;;8.73;5.10;;;8.40;1.00;;;;;;5074403;28;20394;-76
2020/12/14 09:18:55;;;;;;;12.23;5.53;;;7.60;1.00;;;;;;5074009;28;20950;-76
2020/12/14 09:21:22;;;;;;;9.80;4.93;;;8.90;1.00;;;;;;5074105;28;20187;-76
2020/12/14 09:24:10;;;;;;;12.40;5.67;;;8.60;1.00;;;;;;5073995;28;20402;-76
2020/12/14 09:26:35;;;;;;;7.50;4.83;;;7.90;1.00;;;;;;5074406;28;20597;-75
2020/12/14 09:29:01;;;;;;;6.10;4.03;;;8.00;1.00;;;;;;5073870;28;20425;-77
2020/12/14 09:31:27;;;;;;;11.70;4.10;;;8.10;1.00;;;;;;5073905;28;20214;-76
2020/12/14 09:33:53;;;;;;;9.33;4.70;;;9.40;1.00;;;;;;5073976;28;20857;-76
2020/12/14 09:36:18;;;;;;;6.67;4.20;;;8.10;1.00;;;;;;5078758;28;20609;-76
2020/12/14 09:38:47;;;;;;;9.83;4.23;;;8.10;1.00;;;;;;5095181;28;20170;-76
2020/12/14 09:41:31;;;;;;;7.43;4.00;;;8.20;1.00;;;;;;5095058;28;20621;-76
2020/12/14 09:44:05;;;;;;;6.80;3.50;;;8.30;1.00;;;;;;5081457;28;20421;-76
2020/12/14 09:46:53;;;;;;;6.63;3.80;;;8.40;1.00;;;;;;5091632;28;20922;-76
2020/12/14 09:49:23;;;;;;;4.37;3.27;;;8.60;1.00;;;;;;5094706;28;20436;-76
2020/12/14 09:52:28;;;;;;;4.00;3.30;;;8.70;1.00;;;;;;5094974;28;20400;-76
2020/12/14 09:55:12;;;;;;;6.50;3.83;;;8.70;1.00;;;;;;5095167;28;20377;-76
2020/12/14 09:57:38;;;;;;;4.67;3.53;;;8.90;1.00;;;;;;5074802;28;20404;-75
2020/12/14 10:00:05;;;;;;;12.57;4.13;;;8.80;1.00;;;;;;5074576;28;20409;-75
2020/12/14 10:02:31;;;;;;;4.80;2.97;;;8.90;1.00;;;;;;5074701;28;20212;-76
2020/12/14 10:05:52;;;;;;;6.10;4.10;;;9.00;1.00;;;;;;5074244;28;20413;-76
2020/12/14 10:11:40;;;;;;;6.30;4.03;;;8.60;1.00;;;;;;5074776;28;20389;-75
2020/12/14 10:14:23;;;;;;;4.70;3.37;;;8.70;1.00;;;;;;5074347;28;20409;-75
2020/12/14 10:17:10;;;;;;;5.07;3.77;;;8.60;1.00;;;;;;5074183;28;20210;-75
2020/12/14 10:19:36;;;;;;;10.27;3.50;;;8.70;1.00;;;;;;5074331;28;20445;-75
2020/12/14 10:22:11;;;;;;;10.13;3.50;;;8.90;1.00;;;;;;5074597;28;20455;-75
2020/12/14 10:24:41;;;;;;;6.00;3.30;;;8.90;1.00;;;;;;5073870;28;20210;-75
2020/12/14 10:27:23;;;;;;;3.33;3.03;;;9.10;1.00;;;;;;5074418;28;20393;-75
2020/12/14 10:29:53;;;;;;;4.10;3.30;;;9.20;1.00;;;;;;5074172;28;20437;-76
2020/12/14 10:32:19;;;;;;;4.27;2.87;;;9.20;1.00;;;;;;5074001;28;20805;-75
2020/12/14 10:34:47;;;;;;;6.20;2.90;;;9.40;1.00;;;;;;5075166;28;20441;-75
2020/12/14 10:37:12;;;;;;;3.37;2.70;;;9.40;1.00;;;;;;5074749;28;20198;-75
2020/12/14 10:39:43;;;;;;;3.30;2.57;;;9.50;1.00;;;;;;5093760;28;21008;-75
2020/12/14 10:42:09;;;;;;;5.30;3.20;;;9.60;1.00;;;;;;5094762;28;20150;-75
2020/12/14 10:44:34;;;;;;;3.80;2.43;;;9.40;1.00;;;;;;5079501;28;20474;-75
2020/12/14 10:47:06;;;;;;;4.77;2.47;;;9.70;1.00;;;;;;5073784;28;20389;-75
2020/12/14 10:49:35;;;;;;;5.80;2.40;;;9.80;1.00;;;;;;5074061;28;20183;-75
2020/12/14 10:52:11;;;;;;;4.13;2.23;;;10.10;1.00;;;;;;5073973;28;20868;-75
2020/12/14 10:54:37;;;;;;;5.90;2.50;;;10.20;1.00;;;;;;5085319;28;20451;-75
2020/12/14 10:57:11;;;;;;;2.40;2.20;;;10.40;1.00;;;;;;5094490;28;20808;-74
2020/12/14 10:59:41;;;;;;;2.50;2.10;;;10.50;1.00;;;;;;5094082;28;20161;-74
2020/12/14 11:02:41;;;;;;;3.83;2.60;;;10.80;1.00;;;;;;5094024;28;20782;-75
2020/12/14 11:05:08;;;;;;;2.33;2.10;;;10.80;1.00;;;;;;5093413;28;20397;-75
2020/12/14 11:07:34;;;;;;;2.73;2.20;;;10.90;1.00;;;;;;5093225;28;20662;-76
2020/12/14 11:10:01;;;;;;;2.50;2.20;;;11.10;1.00;;;;;;5092825;28;20459;-75
2020/12/14 11:12:27;;;;;;;4.40;2.20;;;11.20;1.00;;;;;;5093358;28;20400;-75
2020/12/14 11:14:53;;;;;;;3.20;2.07;;;11.20;1.00;;;;;;5092893;28;20476;-75
2020/12/14 11:17:19;;;;;;;2.57;2.30;;;11.30;1.00;;;;;;5092787;28;20421;-75
2020/12/14 11:19:45;;;;;;;3.10;2.33;;;11.20;1.00;;;;;;5092761;28;20923;-75
2020/12/14 11:22:11;;;;;;;2.67;2.33;;;11.10;1.00;;;;;;5092801;28;20393;-75
2020/12/14 11:24:36;;;;;;;2.80;2.20;;;11.10;1.00;;;;;;5092819;28;20212;-74
2020/12/14 11:27:02;;;;;;;2.60;2.00;;;11.20;1.00;;;;;;5093118;28;20159;-75
2020/12/14 11:29:28;;;;;;;3.00;2.40;;;11.20;1.00;;;;;;5092653;28;20186;-75
2020/12/14 11:31:54;;;;;;;4.70;2.43;;;11.20;1.00;;;;;;5092732;28;20879;-75
2020/12/14 11:34:29;;;;;;;2.37;2.13;;;11.30;1.00;;;;;;5092656;28;20392;-75
2020/12/14 11:36:55;;;;;;;2.00;1.90;;;11.30;1.00;;;;;;5093685;28;20170;-75
2020/12/14 11:39:23;;;;;;;6.50;2.20;;;11.40;1.00;;;;;;5094072;28;20420;-76
2020/12/14 11:41:49;;;;;;;3.43;2.60;;;11.50;1.00;;;;;;5091204;28;20178;-75
2020/12/14 11:44:35;;;;;;;5.00;2.50;;;11.50;1.00;;;;;;5091977;28;20399;-82
2020/12/14 11:47:17;;;;;;;3.43;2.40;;;11.60;1.00;;;;;;5073652;28;20397;-76
2020/12/14 11:49:59;;;;;;;3.53;2.33;;;11.60;1.00;;;;;;5073291;28;20474;-76
2020/12/14 11:52:59;;;;;;;2.20;2.00;;;11.50;1.00;;;;;;5085941;28;20453;-75
2020/12/14 11:55:29;;;;;;;3.73;2.50;;;11.50;1.00;;;;;;5073450;28;20385;-76
2020/12/14 11:57:55;;;;;;;4.10;2.43;;;11.40;1.00;;;;;;5073641;28;20386;-75
2020/12/14 12:00:35;;;;;;;5.73;2.10;;;11.30;1.00;;;;;;5073112;28;20385;-75
2020/12/14 12:03:29;;;;;;;1.73;1.63;;;11.40;1.00;;;;;;5073363;28;20630;-75
2020/12/14 12:05:56;;;;;;;2.90;2.13;;;11.20;1.00;;;;;;5074781;28;20779;-75
2020/12/14 12:08:25;;;;;;;6.53;2.30;;;11.20;1.00;;;;;;5090560;28;20442;-75
2020/12/14 12:10:51;;;;;;;2.17;1.97;;;11.20;1.00;;;;;;5076424;28;20435;-75
2020/12/14 12:13:17;;;;;;;3.03;2.13;;;11.30;1.00;;;;;;5080283;28;20489;-77
2020/12/14 12:15:43;;;;;;;2.70;2.20;;;11.20;1.00;;;;;;5080666;28;20428;-75
2020/12/14 12:18:09;;;;;;;4.60;2.77;;;11.20;1.00;;;;;;5088386;28;20485;-75
2020/12/14 12:20:34;;;;;;;3.57;2.10;;;11.20;1.00;;;;;;5088375;28;20255;-74
2020/12/14 12:23:00;;;;;;;4.07;2.23;;;11.00;1.00;;;;;;5086570;28;20590;-75
2020/12/14 12:25:25;;;;;;;2.50;2.30;;;11.00;1.00;;;;;;5074951;28;20636;-75
2020/12/14 12:27:51;;;;;;;2.30;2.10;;;11.10;1.00;;;;;;5075356;28;20190;-75
2020/12/14 12:30:18;;;;;;;2.40;2.10;;;11.00;1.00;;;;;;5075235;28;20187;-75
2020/12/14 12:32:44;;;;;;;4.93;2.00;;;;;;;;;;5072377;28;20938;-75
2020/12/14 12:35:09;;;;;;;2.53;2.20;;;11.00;1.00;;;;;;5098059;28;20492;-75
2020/12/14 12:37:35;;;;;;;3.27;1.90;;;11.00;1.00;;;;;;5086092;28;20519;-75
2020/12/14 12:40:03;;;;;;;5.57;2.77;;;11.00;1.00;;;;;;5092191;28;20562;-75
2020/12/14 12:42:29;;;;;;;2.60;2.10;;;11.00;1.00;;;;;;5075192;28;20185;-76
2020/12/14 12:44:55;;;;;;;1.90;1.77;;;11.10;1.00;;;;;;5074926;28;20397;-76
2020/12/14 12:47:20;;;;;;;4.10;2.67;;;11.20;1.00;;;;;;5075613;28;20800;-76
2020/12/14 12:49:46;;;;;;;2.60;2.10;;;11.30;1.00;;;;;;5074754;28;20205;-76
2020/12/14 12:52:11;;;;;;;2.67;2.07;;;11.30;1.00;;;;;;5082442;28;20163;-75
2020/12/14 12:54:37;;;;;;;2.90;1.93;;;11.20;1.00;;;;;;5074910;28;20294;-75
2020/12/14 12:57:04;;;;;;;2.40;1.97;;;11.30;1.00;;;;;;5075175;28;20151;-75
2020/12/14 12:59:31;;;;;;;3.43;2.30;;;11.40;1.00;;;;;;5076736;28;20179;-75
2020/12/14 13:01:56;;;;;;;3.20;2.23;;;11.40;1.00;;;;;;5086044;28;20395;-76
2020/12/14 13:04:22;;;;;;;3.47;2.00;;;11.30;1.00;;;;;;5074669;28;20389;-76
2020/12/14 13:06:48;;;;;;;5.00;2.17;;;11.30;1.00;;;;;;5074553;28;20207;-75
2020/12/14 13:09:13;;;;;;;6.33;2.63;;;11.40;1.00;;;;;;5082193;28;20187;-75
2020/12/14 13:11:41;;;;;;;7.03;2.27;;;11.40;1.00;;;;;;5077836;28;20425;-75
2020/12/14 13:14:13;;;;;;;2.53;2.20;;;11.20;1.00;;;;;;5086822;28;20182;-75
2020/12/14 13:16:40;;;;;;;5.30;2.33;;;11.20;1.00;;;;;;5084535;28;20419;-74
2020/12/14 13:19:17;;;;;;;1.80;1.67;;;11.20;1.00;;;;;;5086574;28;20413;-75
2020/12/14 13:21:43;;;;;;;2.03;1.60;;;11.00;1.00;;;;;;5075315;28;20511;-74
2020/12/14 13:24:17;;;;;;;2.13;1.83;;;10.70;1.00;;;;;;5075103;28;20481;-74
2020/12/14 13:26:43;;;;;;;4.17;1.90;;;10.60;1.00;;;;;;5076674;28;20170;-74
2020/12/14 13:29:29;;;;;;;3.53;1.70;;;10.60;1.00;;;;;;5095144;28;20925;-75
2020/12/14 13:31:59;;;;;;;2.23;1.80;;;10.60;1.00;;;;;;5092056;28;20237;-75
2020/12/14 13:34:35;;;;;;;1.80;1.60;;;10.60;1.00;;;;;;5074953;28;20780;-75
2020/12/14 13:37:11;;;;;;;2.93;1.93;;;10.60;1.00;;;;;;5075797;28;20768;-75
2020/12/14 13:39:53;;;;;;;4.33;1.90;;;10.50;1.00;;;;;;5075053;28;20922;-76
2020/12/14 13:42:27;;;;;;;81.10;29.53;;;10.50;1.00;;;;;;5075687;28;20389;-74
2020/12/14 13:44:53;;;;;;;1.70;1.57;;;10.50;1.00;;;;;;5074903;28;20389;-75
2020/12/14 13:47:19;;;;;;;2.10;1.70;;;10.40;1.00;;;;;;5091751;28;20453;-75
2020/12/14 13:49:53;;;;;;;5.57;1.80;;;10.40;1.00;;;;;;5075259;28;20449;-75
2020/12/14 13:52:21;;;;;;;3.37;2.03;;;10.40;1.00;;;;;;5074621;28;20609;-74
2020/12/14 13:54:47;;;;;;;2.00;1.80;;;10.30;1.00;;;;;;5074729;28;20440;-74
2020/12/14 13:57:13;;;;;;;1.27;1.17;;;10.30;1.00;;;;;;5074535;28;20789;-75
2020/12/14 13:59:53;;;;;;;4.33;2.00;;;10.30;1.00;;;;;;5074842;28;20413;-75
2020/12/14 14:02:20;;;;;;;2.00;1.67;;;10.30;1.00;;;;;;5074098;28;20657;-75
2020/12/14 14:04:46;;;;;;;4.93;1.70;;;10.20;1.00;;;;;;5073457;28;20397;-75
2020/12/14 14:07:11;;;;;;;2.07;1.47;;;10.20;1.00;;;;;;5073270;28;20398;-75
2020/12/14 14:09:37;;;;;;;1.53;1.13;;;10.20;1.00;;;;;;5073347;28;20589;-75
2020/12/14 14:12:03;;;;;;;3.23;1.50;;;10.20;1.00;;;;;;5072513;28;20178;-75
2020/12/14 14:14:29;;;;;;;2.60;1.70;;;10.10;1.00;;;;;;5078387;28;20547;-75
2020/12/14 14:16:57;;;;;;;1.40;1.30;;;10.10;1.00;;;;;;5072026;28;20533;-75
2020/12/14 14:19:25;;;;;;;3.00;1.40;;;10.00;1.00;;;;;;5073163;28;20426;-75
2020/12/14 14:21:55;;;;;;;2.00;1.30;;;10.00;1.00;;;;;;5072910;28;20428;-75